Time;durP1;ratioP1;P1;durP2;ratioP2;P2;SDS_P1;SDS_P2;PMS_P1;PMS_P2;Temp;Humidity;BMP_temperature;BMP_pressure;BME280_temperature;BME280_humidity;BME280_pressure;Samples;Min_cycle;Max_cycle;Signal;HPM_P1;HPM_P2
2023/03/16 00:00:16;;;;;;;54.38;17.42;;;;;;;2.97;87.17;100482.78;5024742;28;20129;-87
2023/03/16 00:02:43;;;;;;;55.22;17.42;;;;;;;3.11;86.33;100488.22;4993457;28;20132;-87
2023/03/16 00:05:11;;;;;;;80.57;18.45;;;;;;;2.96;87.80;100492.41;5008351;28;20100;-88
2023/03/16 00:07:40;;;;;;;56.70;18.27;;;;;;;2.94;88.57;100486.38;4997079;28;20430;-88
2023/03/16 00:10:10;;;;;;;76.03;20.48;;;;;;;2.90;88.46;100482.22;5024825;28;20049;-87
2023/03/16 00:12:37;;;;;;;67.30;18.40;;;;;;;2.82;89.05;100482.56;5009862;28;20033;-87
2023/03/16 00:15:04;;;;;;;52.92;17.15;;;;;;;2.87;89.16;100484.13;4994214;28;20052;-89
2023/03/16 00:17:33;;;;;;;73.20;18.50;;;;;;;2.85;88.79;100486.84;5002506;28;20056;-87
2023/03/16 00:20:05;;;;;;;132.40;22.33;;;;;;;3.04;87.65;100484.19;5025181;28;20053;-88
2023/03/16 00:22:32;;;;;;;58.00;18.30;;;;;;;2.91;87.65;100483.06;5023227;28;20125;-87
2023/03/16 00:24:59;;;;;;;59.20;17.88;;;;;;;2.92;87.78;100482.13;5001214;28;20488;-87
2023/03/16 00:27:26;;;;;;;54.88;18.42;;;;;;;2.87;87.70;100482.34;5006790;28;20049;-88
2023/03/16 00:29:56;;;;;;;99.05;19.00;;;;;;;3.12;86.42;100486.44;5015808;28;20516;-88
2023/03/16 00:32:30;;;;;;;128.18;20.50;;;;;;;2.90;85.16;100492.72;4975281;28;20065;-88
2023/03/16 00:34:57;;;;;;;;;;;;;;;2.71;85.39;100494.47;5032955;28;20052;-87
2023/03/16 00:37:25;;;;;;;60.20;15.68;;;;;;;2.75;85.62;100496.88;5021181;28;19928;-87
2023/03/16 00:39:55;;;;;;;42.72;15.15;;;;;;;2.77;85.12;100491.56;5009627;28;20457;-87
2023/03/16 00:42:26;;;;;;;59.97;17.77;;;;;;;2.68;85.67;100490.22;4991828;28;20060;-87
2023/03/16 00:44:56;;;;;;;89.75;20.70;;;;;;;2.71;86.87;100499.72;5007749;28;20054;-88
2023/03/16 00:47:31;;;;;;;59.72;17.27;;;;;;;2.63;87.12;100491.34;5020019;28;20068;-88
2023/03/16 00:49:59;;;;;;;56.42;17.85;;;;;;;2.62;86.90;100495.75;4986223;28;20495;-87
2023/03/16 00:52:27;;;;;;;52.90;16.67;;;;;;;2.69;86.92;100481.41;5028180;28;20921;-88
2023/03/16 00:54:56;;;;;;;41.78;16.77;;;;;;;2.68;87.13;100482.34;5014286;28;20103;-88
2023/03/16 00:57:24;;;;;;;57.70;16.27;;;;;;;2.65;86.76;100479.03;4995837;28;20048;-88
2023/03/16 00:59:51;;;;;;;58.90;16.10;;;;;;;2.62;86.82;100474.78;5023827;28;20048;-88
2023/03/16 01:02:22;;;;;;;40.85;16.17;;;;;;;2.67;86.53;100472.78;5000877;28;20058;-87
2023/03/16 01:04:50;;;;;;;40.20;15.57;;;;;;;2.66;86.36;100476.31;4986526;28;20439;-89
2023/03/16 01:07:18;;;;;;;44.65;16.20;;;;;;;2.65;85.98;100466.75;4979142;28;20056;-87
2023/03/16 01:09:45;;;;;;;43.80;15.57;;;;;;;2.67;86.04;100459.69;5013173;28;20394;-87
2023/03/16 01:12:14;;;;;;;51.42;16.63;;;;;;;2.55;85.37;100457.63;5017770;28;20046;-87
2023/03/16 01:14:46;;;;;;;40.15;15.77;;;;;;;2.57;85.96;100456.63;4994591;28;20045;-87
2023/03/16 01:17:14;;;;;;;42.45;15.32;;;;;;;2.42;86.13;100456.44;4997376;28;20041;-88
2023/03/16 01:19:42;;;;;;;47.42;15.77;;;;;;;2.41;86.25;100455.59;4993488;28;20058;-88
2023/03/16 01:22:10;;;;;;;47.10;15.70;;;;;;;2.47;86.59;100457.06;5011390;28;20048;-87
2023/03/16 01:24:38;;;;;;;44.72;16.27;;;;;;;2.47;86.37;100452.72;4989288;28;20042;-89
2023/03/16 01:27:05;;;;;;;39.55;14.52;;;;;;;2.49;87.67;100463.09;5003133;28;20127;-87
2023/03/16 01:29:32;;;;;;;46.38;16.30;;;;;;;2.45;87.24;100456.31;5023322;28;20049;-87
2023/03/16 01:32:00;;;;;;;47.13;16.95;;;;;;;2.40;86.20;100456.53;5027102;28;20517;-89
2023/03/16 01:34:27;;;;;;;43.47;15.43;;;;;;;2.49;86.49;100460.50;5027287;28;20559;-88
2023/03/16 01:36:55;;;;;;;38.65;16.58;;;;;;;2.48;86.32;100462.25;4990749;28;20564;-88
2023/03/16 01:39:29;;;;;;;41.00;15.57;;;;;;;2.38;86.79;100448.72;4993168;28;20056;-89
2023/03/16 01:41:55;;;;;;;38.72;14.90;;;;;;;2.45;86.76;100451.94;4995269;28;20136;-87
2023/03/16 01:44:29;;;;;;;37.53;15.38;;;;;;;2.47;86.08;100444.84;5030552;28;20052;-89
2023/03/16 01:47:00;;;;;;;34.75;13.57;;;;;;;2.43;85.24;100442.44;4981442;28;20061;-89
2023/03/16 01:49:35;;;;;;;33.13;13.15;;;;;;;2.34;83.91;100447.16;4975865;28;20045;-89
2023/03/16 01:52:17;;;;;;;33.45;13.23;;;;;;;2.43;83.14;100442.44;5008935;28;20143;-87
2023/03/16 01:54:47;;;;;;;29.75;13.02;;;;;;;2.46;82.94;100458.00;4973604;28;20567;-87
2023/03/16 01:57:17;;;;;;;29.40;12.90;;;;;;;2.33;82.49;100452.47;4998009;28;20068;-88
2023/03/16 01:59:50;;;;;;;27.75;13.07;;;;;;;2.27;82.52;100448.34;5018308;28;20045;-88
2023/03/16 02:02:20;;;;;;;32.33;13.43;;;;;;;2.21;81.71;100437.28;4968851;28;20160;-87
2023/03/16 02:04:52;;;;;;;29.92;11.90;;;;;;;2.30;81.49;100435.13;5008155;28;20049;-88
2023/03/16 02:07:23;;;;;;;30.55;12.60;;;;;;;2.27;82.80;100435.25;5018603;28;20052;-88
2023/03/16 02:09:53;;;;;;;29.55;12.48;;;;;;;2.30;82.12;100429.03;5008959;28;20432;-87
2023/03/16 02:12:21;;;;;;;25.08;12.00;;;;;;;2.30;82.07;100422.00;5029249;28;20075;-87
2023/03/16 02:14:52;;;;;;;31.05;12.45;;;;;;;2.20;83.12;100425.13;5007271;28;20049;-88
2023/03/16 02:17:22;;;;;;;33.83;13.70;;;;;;;2.15;83.13;100422.69;5020818;28;20068;-87
2023/03/16 02:20:15;;;;;;;34.72;13.07;;;;;;;2.05;83.36;100413.53;4991930;28;20053;-88
2023/03/16 02:22:44;;;;;;;30.27;13.80;;;;;;;2.03;83.55;100404.88;4997135;28;20509;-88
2023/03/16 02:25:13;;;;;;;29.65;13.30;;;;;;;2.13;83.47;100409.66;4973856;28;20056;-87
2023/03/16 02:27:57;;;;;;;36.92;13.60;;;;;;;2.06;84.23;100408.25;4985145;28;20060;-88
2023/03/16 02:30:24;;;;;;;29.27;12.40;;;;;;;2.12;84.42;100415.81;4988345;28;20049;-87
2023/03/16 02:32:58;;;;;;;39.28;15.20;;;;;;;2.07;85.54;100409.94;5009459;28;20045;-88
2023/03/16 02:35:25;;;;;;;36.22;14.32;;;;;;;2.13;84.69;100406.19;5009897;28;20519;-87
2023/03/16 02:37:52;;;;;;;38.15;14.88;;;;;;;2.16;84.16;100401.69;4991597;28;20042;-88
2023/03/16 02:40:32;;;;;;;35.72;14.40;;;;;;;2.00;84.43;100397.19;4988363;28;20052;-88
2023/03/16 02:43:08;;;;;;;30.60;13.23;;;;;;;2.01;84.79;100396.25;4974879;28;20056;-88
2023/03/16 02:45:43;;;;;;;43.38;14.32;;;;;;;2.04;84.13;100398.75;4996036;28;20045;-88
2023/03/16 02:48:36;;;;;;;36.92;14.25;;;;;;;1.93;84.25;100401.81;5035987;28;20520;-87
2023/03/16 02:51:04;;;;;;;34.42;14.00;;;;;;;1.98;84.42;100399.84;4918493;28;20053;-88
2023/03/16 02:53:31;;;;;;;32.90;13.13;;;;;;;2.00;84.62;100390.16;4991092;28;20106;-88
2023/03/16 02:56:01;;;;;;;34.60;12.93;;;;;;;1.99;84.40;100403.34;5017163;28;20089;-88
2023/03/16 02:58:31;;;;;;;29.42;12.13;;;;;;;1.97;83.20;100408.63;5011958;28;20049;-87
2023/03/16 03:01:00;;;;;;;29.60;12.23;;;;;;;1.92;82.90;100405.38;4996652;28;20095;-87
2023/03/16 03:03:27;;;;;;;30.05;11.70;;;;;;;2.01;81.90;100398.84;5008574;28;20054;-88
2023/03/16 03:05:54;;;;;;;25.65;10.60;;;;;;;1.90;82.34;100397.56;5024993;28;20053;-87
2023/03/16 03:08:22;;;;;;;27.30;11.18;;;;;;;1.89;81.78;100397.66;4988545;28;20488;-87
2023/03/16 03:10:50;;;;;;;29.02;12.20;;;;;;;1.94;82.34;100391.28;5023207;28;20160;-88
2023/03/16 03:13:16;;;;;;;25.05;11.32;;;;;;;1.94;82.04;100390.44;5003979;28;20447;-88
2023/03/16 03:15:44;;;;;;;24.40;11.35;;;;;;;2.01;82.46;100388.38;4995566;28;20034;-88
2023/03/16 03:18:11;;;;;;;24.73;11.02;;;;;;;2.00;82.24;100391.94;5012304;28;20045;-87
2023/03/16 03:20:38;;;;;;;25.70;11.50;;;;;;;1.91;82.65;100380.94;4995360;28;20040;-88
2023/03/16 03:23:05;;;;;;;34.00;11.88;;;;;;;1.90;83.35;100389.72;5012594;28;20127;-88
2023/03/16 03:25:35;;;;;;;28.90;11.88;;;;;;;1.90;83.38;100397.56;4992255;28;20053;-87
2023/03/16 03:28:07;;;;;;;28.90;11.30;;;;;;;1.95;82.85;100405.22;5007279;28;20045;-88
2023/03/16 03:30:34;;;;;;;30.38;12.07;;;;;;;1.93;83.51;100386.09;4996334;28;20041;-87
2023/03/16 03:33:02;;;;;;;29.13;11.98;;;;;;;1.88;83.03;100380.22;4994438;28;20120;-87
2023/03/16 03:35:29;;;;;;;26.92;10.75;;;;;;;1.85;82.52;100373.34;5012120;28;20053;-87
2023/03/16 03:37:56;;;;;;;30.75;12.02;;;;;;;1.85;83.13;100375.13;5028452;28;20052;-87
2023/03/16 03:40:23;;;;;;;29.52;11.40;;;;;;;1.85;83.57;100381.19;4986213;28;20121;-87
2023/03/16 03:42:56;;;;;;;28.48;12.60;;;;;;;1.85;82.77;100373.34;5013431;28;20049;-87
2023/03/16 03:45:24;;;;;;;27.15;11.95;;;;;;;1.85;82.77;100370.72;5010348;28;20115;-87
2023/03/16 03:47:51;;;;;;;25.20;11.35;;;;;;;1.84;82.69;100373.44;5009351;28;20048;-86
2023/03/16 03:50:20;;;;;;;33.42;12.38;;;;;;;1.88;82.25;100373.25;5007923;28;20071;-88
2023/03/16 03:53:13;;;;;;;24.35;11.30;;;;;;;1.76;82.71;100363.28;4967670;28;20128;-87
2023/03/16 03:56:06;;;;;;;;;;;;;;;1.63;83.08;100365.59;4966939;28;20052;-87
2023/03/16 03:58:33;;;;;;;27.98;10.98;;;;;;;1.72;83.09;100367.78;5012698;28;20484;-87
2023/03/16 04:01:01;;;;;;;28.90;12.27;;;;;;;1.71;82.95;100367.88;5024751;28;20053;-87
2023/03/16 04:03:29;;;;;;;26.45;11.80;;;;;;;1.71;83.37;100367.88;5007958;28;20077;-87
2023/03/16 04:05:57;;;;;;;30.73;11.85;;;;;;;1.69;83.31;100362.69;4993682;28;20056;-87
2023/03/16 04:08:23;;;;;;;25.33;10.98;;;;;;;1.71;82.34;100368.72;4997350;28;20507;-87
2023/03/16 04:10:50;;;;;;;26.85;11.75;;;;;;;1.69;82.51;100367.09;5010459;28;20046;-87
2023/03/16 04:13:20;;;;;;;31.80;11.75;;;;;;;1.75;81.97;100364.19;5013404;28;20046;-88
2023/03/16 04:15:48;;;;;;;27.30;11.80;;;;;;;1.60;82.34;100359.63;4991402;28;20049;-87
2023/03/16 04:18:18;;;;;;;26.17;11.00;;;;;;;1.61;81.74;100366.56;4990801;28;20145;-86
2023/03/16 04:20:45;;;;;;;26.77;12.13;;;;;;;1.69;82.06;100360.09;4995174;28;20045;-87
2023/03/16 04:23:15;;;;;;;29.67;12.68;;;;;;;1.67;81.82;100372.38;5009166;28;20069;-86
2023/03/16 04:25:45;;;;;;;30.67;11.27;;;;;;;1.63;82.14;100372.56;5036536;28;20104;-85
2023/03/16 04:28:16;;;;;;;27.98;11.98;;;;;;;1.62;82.56;100368.25;4971700;28;20053;-86
2023/03/16 04:30:46;;;;;;;25.88;11.13;;;;;;;1.62;82.23;100369.09;5011410;28;20518;-86
2023/03/16 04:33:18;;;;;;;31.48;11.55;;;;;;;1.55;82.07;100362.44;4998115;28;20057;-86
2023/03/16 04:35:45;;;;;;;26.75;11.38;;;;;;;1.55;82.56;100365.03;5025971;28;20076;-86
2023/03/16 04:38:14;;;;;;;25.50;10.82;;;;;;;1.56;82.96;100363.31;5024768;28;20408;-86
2023/03/16 04:40:50;;;;;;;29.98;13.45;;;;;;;1.56;82.84;100371.16;5020345;28;20048;-86
2023/03/16 04:43:21;;;;;;;26.40;11.27;;;;;;;1.63;82.47;100370.81;4997336;28;20553;-86
2023/03/16 04:45:51;;;;;;;26.77;11.60;;;;;;;1.51;82.27;100377.44;5003310;28;20165;-86
2023/03/16 04:48:18;;;;;;;26.08;11.77;;;;;;;1.53;82.61;100369.53;5007080;28;20480;-84
2023/03/16 04:50:47;;;;;;;29.40;11.80;;;;;;;1.56;82.27;100368.53;5008397;28;20045;-86
2023/03/16 04:53:15;;;;;;;25.13;11.55;;;;;;;1.55;81.94;100365.03;5009430;28;20041;-86
2023/03/16 04:55:46;;;;;;;27.20;11.48;;;;;;;1.60;81.90;100370.94;5027044;28;20132;-86
2023/03/16 04:58:14;;;;;;;24.88;11.10;;;;;;;1.60;81.76;100368.31;5010944;28;20049;-85
2023/03/16 05:00:40;;;;;;;24.40;11.27;;;;;;;1.46;82.24;100358.44;5020594;28;20068;-86
2023/03/16 05:03:16;;;;;;;25.33;11.32;;;;;;;1.52;82.04;100363.41;5004774;28;20050;-86
2023/03/16 05:05:45;;;;;;;27.85;11.27;;;;;;;1.50;82.02;100367.00;4992447;28;20075;-85
2023/03/16 05:08:13;;;;;;;25.05;10.82;;;;;;;1.52;82.09;100359.94;5004510;28;20107;-80
2023/03/16 05:10:43;;;;;;;26.25;11.55;;;;;;;1.53;81.97;100356.44;5014966;28;20041;-81
2023/03/16 05:13:10;;;;;;;29.83;12.13;;;;;;;1.46;82.80;100355.84;5010638;28;20045;-81
2023/03/16 05:15:37;;;;;;;26.90;11.13;;;;;;;1.47;82.92;100351.44;5009056;28;20071;-81
2023/03/16 05:18:16;;;;;;;23.73;11.82;;;;;;;1.39;83.02;100356.16;4980329;28;20053;-81
2023/03/16 05:20:44;;;;;;;31.30;12.82;;;;;;;1.40;82.89;100355.22;5027879;28;20620;-80
2023/03/16 05:23:11;;;;;;;25.33;11.15;;;;;;;1.42;82.62;100351.63;4993633;28;20037;-80
2023/03/16 05:25:46;;;;;;;26.33;11.48;;;;;;;1.47;82.39;100354.91;5005805;28;20139;-81
2023/03/16 05:28:15;;;;;;;27.30;11.82;;;;;;;1.45;81.99;100354.16;5013553;28;20392;-81
2023/03/16 05:30:51;;;;;;;24.08;11.38;;;;;;;1.49;82.56;100360.94;5008221;28;20073;-80
2023/03/16 05:33:23;;;;;;;28.63;11.38;;;;;;;1.43;82.30;100357.75;4972564;28;20397;-81
2023/03/16 05:35:56;;;;;;;26.07;11.80;;;;;;;1.52;82.79;100360.78;5025833;28;20049;-81
2023/03/16 05:38:24;;;;;;;30.42;12.63;;;;;;;1.51;83.14;100353.88;5012514;28;20092;-80
2023/03/16 05:40:53;;;;;;;29.30;12.50;;;;;;;1.57;82.86;100351.91;4986477;28;20485;-80
2023/03/16 05:43:36;;;;;;;25.98;11.73;;;;;;;1.52;83.03;100344.25;4954379;28;20053;-81
2023/03/16 05:46:03;;;;;;;30.10;12.80;;;;;;;1.61;82.66;100340.41;4996082;28;20038;-80
2023/03/16 05:48:31;;;;;;;31.35;12.45;;;;;;;1.53;83.20;100340.72;5038446;28;20053;-80
2023/03/16 05:50:58;;;;;;;27.20;12.80;;;;;;;1.55;82.83;100338.88;5035499;28;20506;-80
2023/03/16 05:53:28;;;;;;;29.25;12.68;;;;;;;1.56;82.57;100356.31;5025352;28;20042;-80
2023/03/16 05:56:02;;;;;;;30.77;12.88;;;;;;;1.56;82.81;100350.22;5003145;28;20037;-81
2023/03/16 05:58:34;;;;;;;33.13;13.50;;;;;;;1.53;82.88;100348.59;5012129;28;20099;-80
2023/03/16 06:01:06;;;;;;;32.05;13.43;;;;;;;1.58;82.63;100341.38;4991123;28;20133;-81
2023/03/16 06:03:32;;;;;;;30.88;12.65;;;;;;;1.54;83.42;100344.19;5019441;28;20045;-80
2023/03/16 06:06:00;;;;;;;30.30;13.45;;;;;;;1.69;82.76;100344.38;5017484;28;20057;-81
2023/03/16 06:08:32;;;;;;;30.60;13.05;;;;;;;1.69;83.07;100344.38;5010797;28;20123;-81
2023/03/16 06:11:06;;;;;;;30.80;13.98;;;;;;;1.69;82.56;100331.28;5027227;28;20132;-80
2023/03/16 06:13:33;;;;;;;32.50;14.13;;;;;;;1.73;81.79;100331.97;4989187;28;20049;-81
2023/03/16 06:16:01;;;;;;;34.13;12.95;;;;;;;1.67;81.85;100335.72;5008844;28;20456;-81
2023/03/16 06:18:28;;;;;;;31.30;13.30;;;;;;;1.81;81.29;100332.53;5020067;28;20103;-80
2023/03/16 06:20:55;;;;;;;32.05;13.38;;;;;;;1.85;81.40;100338.47;4987962;28;20076;-81
2023/03/16 06:23:22;;;;;;;31.85;13.90;;;;;;;1.87;81.21;100334.84;4989835;28;20107;-80
2023/03/16 06:25:50;;;;;;;31.90;14.13;;;;;;;1.93;81.38;100339.84;5000821;28;20072;-80
2023/03/16 06:28:21;;;;;;;28.70;12.73;;;;;;;1.89;81.16;100340.88;4978079;28;20037;-80
2023/03/16 06:30:52;;;;;;;32.70;14.23;;;;;;;1.93;80.62;100331.09;4990777;28;20042;-81
2023/03/16 06:33:19;;;;;;;34.63;14.00;;;;;;;2.00;81.41;100336.94;4991928;28;20048;-80
2023/03/16 06:35:50;;;;;;;32.33;14.55;;;;;;;2.01;81.04;100329.03;4999650;28;20079;-81
2023/03/16 06:38:26;;;;;;;34.15;15.52;;;;;;;1.97;81.10;100331.84;5004572;28;20045;-80
2023/03/16 06:41:07;;;;;;;34.55;14.05;;;;;;;1.95;80.59;100332.75;4988140;28;20045;-80
2023/03/16 06:43:34;;;;;;;34.60;15.13;;;;;;;2.02;81.17;100332.47;5018966;28;20053;-80
2023/03/16 06:46:02;;;;;;;33.90;14.43;;;;;;;2.06;81.01;100339.25;5004373;28;20045;-80
2023/03/16 06:48:29;;;;;;;30.27;13.05;;;;;;;2.02;81.48;100337.72;5006963;28;20374;-80
2023/03/16 06:50:56;;;;;;;34.17;15.25;;;;;;;1.99;81.14;100337.88;5011212;28;20121;-81
2023/03/16 06:53:25;;;;;;;32.17;14.05;;;;;;;2.08;81.74;100340.88;5007572;28;20084;-81
2023/03/16 06:55:54;;;;;;;33.60;14.10;;;;;;;2.06;81.55;100336.63;4989708;28;20050;-81
2023/03/16 06:58:21;;;;;;;35.85;15.93;;;;;;;2.07;81.73;100348.84;5010128;28;20113;-80
2023/03/16 07:00:48;;;;;;;47.83;15.73;;;;;;;2.07;81.43;100344.44;5015338;28;20396;-81
2023/03/16 07:03:15;;;;;;;36.70;14.80;;;;;;;2.16;82.02;100349.28;5000974;28;20070;-81
2023/03/16 07:05:47;;;;;;;36.50;15.30;;;;;;;2.22;82.44;100340.28;5010370;28;20075;-81
2023/03/16 07:08:14;;;;;;;34.75;14.70;;;;;;;2.27;82.65;100350.56;4999336;28;20057;-80
2023/03/16 07:10:41;;;;;;;38.00;15.02;;;;;;;2.27;82.81;100347.94;5022624;28;20053;-80
2023/03/16 07:13:08;;;;;;;38.55;16.63;;;;;;;2.35;83.26;100351.91;5007605;28;20121;-80
2023/03/16 07:15:35;;;;;;;39.33;15.25;;;;;;;2.33;82.69;100358.13;4990950;28;20049;-81
2023/03/16 07:18:02;;;;;;;37.10;14.63;;;;;;;2.35;82.96;100358.91;5006995;28;20048;-81
2023/03/16 07:20:31;;;;;;;34.65;14.70;;;;;;;2.42;82.52;100352.47;4986385;28;20068;-81
2023/03/16 07:23:00;;;;;;;34.35;15.13;;;;;;;2.50;82.95;100362.59;4997390;28;20050;-81
2023/03/16 07:25:27;;;;;;;35.92;14.30;;;;;;;2.53;82.65;100359.81;5005077;28;20037;-80
2023/03/16 07:27:54;;;;;;;33.65;14.82;;;;;;;2.67;82.23;100360.03;5018071;28;20123;-81
2023/03/16 07:30:26;;;;;;;34.78;14.82;;;;;;;2.62;81.87;100364.66;5019138;28;20452;-80
2023/03/16 07:32:54;;;;;;;39.20;15.32;;;;;;;2.71;80.99;100361.56;5019554;28;20535;-81
2023/03/16 07:35:23;;;;;;;36.35;15.65;;;;;;;2.76;80.58;100366.59;5002018;28;20436;-81
2023/03/16 07:37:50;;;;;;;34.28;16.67;;;;;;;2.70;81.35;100356.41;5008814;28;20130;-81
2023/03/16 07:40:18;;;;;;;38.20;14.88;;;;;;;2.69;81.57;100358.16;5025761;28;20060;-81
2023/03/16 07:42:45;;;;;;;38.25;15.77;;;;;;;2.79;81.29;100355.97;4991441;28;20046;-81
2023/03/16 07:45:24;;;;;;;38.15;15.02;;;;;;;2.80;81.27;100355.06;5008478;28;20444;-81
2023/03/16 07:47:53;;;;;;;34.40;14.63;;;;;;;2.78;81.39;100351.66;5006815;28;20049;-81
2023/03/16 07:50:32;;;;;;;36.20;15.15;;;;;;;2.83;81.55;100360.16;5018381;28;20058;-82
2023/03/16 07:52:59;;;;;;;36.47;15.98;;;;;;;2.82;81.37;100353.19;5014147;28;20125;-81
2023/03/16 07:55:26;;;;;;;39.83;16.38;;;;;;;2.91;81.08;100354.53;4972573;28;20072;-81
2023/03/16 07:57:54;;;;;;;40.28;15.77;;;;;;;2.97;81.08;100356.84;5014095;28;20083;-82
2023/03/16 08:00:27;;;;;;;38.28;15.65;;;;;;;3.05;81.36;100354.69;5010946;28;20080;-82
2023/03/16 08:02:56;;;;;;;38.65;16.00;;;;;;;3.11;81.39;100359.66;5022999;28;20433;-81
2023/03/16 08:05:23;;;;;;;40.85;17.45;;;;;;;3.10;81.13;100354.47;5013343;28;20467;-81
2023/03/16 08:07:57;;;;;;;35.53;15.60;;;;;;;3.08;81.43;100361.56;5007931;28;20050;-82
2023/03/16 08:10:26;;;;;;;38.83;15.85;;;;;;;3.15;81.24;100352.47;5028357;28;20107;-81
2023/03/16 08:13:09;;;;;;;41.75;16.45;;;;;;;3.17;81.26;100350.63;4998409;28;20052;-81
2023/03/16 08:15:41;;;;;;;33.13;14.45;;;;;;;3.22;81.18;100348.63;5032786;28;20087;-81
2023/03/16 08:18:14;;;;;;;45.35;17.90;;;;;;;3.29;81.35;100341.31;5000000;28;20521;-81
2023/03/16 08:20:43;;;;;;;43.53;16.52;;;;;;;3.33;81.60;100342.84;4992791;28;20408;-81
2023/03/16 08:23:12;;;;;;;43.90;17.10;;;;;;;3.32;81.31;100341.16;5003805;28;20049;-81
2023/03/16 08:25:40;;;;;;;37.05;16.45;;;;;;;3.37;81.81;100337.34;5007658;28;20041;-81
2023/03/16 08:28:11;;;;;;;40.15;16.52;;;;;;;3.44;81.94;100335.28;5027646;28;20171;-81
2023/03/16 08:30:49;;;;;;;47.20;17.58;;;;;;;3.46;82.71;100325.53;5026737;28;20164;-81
2023/03/16 08:33:27;;;;;;;39.65;15.57;;;;;;;3.53;82.01;100326.91;4973775;28;20049;-81
2023/03/16 08:35:54;;;;;;;39.35;16.15;;;;;;;3.55;81.74;100330.31;5008612;28;20511;-81
2023/03/16 08:38:21;;;;;;;41.40;16.33;;;;;;;3.56;82.26;100318.91;5027460;28;20050;-82
2023/03/16 08:40:50;;;;;;;34.80;14.32;;;;;;;3.61;81.86;100316.88;5013581;28;20045;-82
2023/03/16 08:43:20;;;;;;;35.35;14.85;;;;;;;3.65;82.31;100314.94;5001781;28;20081;-82
2023/03/16 08:45:48;;;;;;;42.33;15.82;;;;;;;3.67;81.96;100316.56;4993288;28;20512;-81
2023/03/16 08:48:17;;;;;;;31.42;14.50;;;;;;;3.67;81.77;100307.84;5005259;28;20056;-81
2023/03/16 08:50:47;;;;;;;35.03;13.80;;;;;;;3.69;81.59;100309.44;5013320;28;20044;-81
2023/03/16 08:53:14;;;;;;;28.65;13.68;;;;;;;3.74;81.06;100308.34;5012095;28;20040;-81
2023/03/16 08:55:41;;;;;;;29.35;13.07;;;;;;;3.80;80.98;100315.91;4997597;28;20198;-82
2023/03/16 08:58:08;;;;;;;32.28;14.15;;;;;;;3.84;81.53;100309.56;4997445;28;20049;-81
2023/03/16 09:00:36;;;;;;;33.15;14.02;;;;;;;3.89;81.50;100313.66;5026762;28;20049;-81
2023/03/16 09:03:03;;;;;;;29.65;13.38;;;;;;;3.94;81.57;100309.91;5019139;28;20041;-81
2023/03/16 09:05:31;;;;;;;34.35;13.57;;;;;;;3.97;81.27;100310.63;5012415;28;20059;-81
2023/03/16 09:07:59;;;;;;;36.03;14.43;;;;;;;4.01;81.62;100313.91;5006699;28;20051;-81
2023/03/16 09:10:26;;;;;;;31.25;13.23;;;;;;;4.04;81.61;100311.13;5019754;28;20056;-81
2023/03/16 09:12:53;;;;;;;31.67;13.60;;;;;;;4.07;81.20;100303.94;5013551;28;20128;-82
2023/03/16 09:15:20;;;;;;;33.95;13.98;;;;;;;4.11;81.79;100307.25;5013293;28;20064;-81
2023/03/16 09:17:47;;;;;;;31.20;12.80;;;;;;;4.13;82.18;100308.84;5024910;28;20052;-82
2023/03/16 09:20:16;;;;;;;32.72;13.02;;;;;;;4.20;81.83;100295.38;5022423;28;20051;-82
2023/03/16 09:22:55;;;;;;;28.60;13.48;;;;;;;4.23;81.93;100282.06;4972182;28;20111;-81
2023/03/16 09:25:24;;;;;;;29.42;12.48;;;;;;;4.26;81.91;100281.91;5013001;28;20045;-81
2023/03/16 09:27:51;;;;;;;27.67;12.52;;;;;;;4.31;81.89;100274.59;5028007;28;20049;-82
2023/03/16 09:30:18;;;;;;;31.05;12.77;;;;;;;4.34;81.64;100275.28;5009202;28;20527;-82
2023/03/16 09:32:47;;;;;;;28.02;11.85;;;;;;;4.35;81.47;100278.75;5007507;28;20088;-82
2023/03/16 09:35:14;;;;;;;30.25;11.45;;;;;;;4.35;80.89;100284.00;5006817;28;20046;-81
2023/03/16 09:37:41;;;;;;;33.53;12.05;;;;;;;4.34;80.60;100283.16;5010586;28;20045;-82
2023/03/16 09:40:24;;;;;;;26.35;12.18;;;;;;;4.37;80.54;100287.41;4994415;28;20388;-82
2023/03/16 09:42:59;;;;;;;22.55;10.10;;;;;;;4.42;80.75;100285.38;5008742;28;20439;-82
2023/03/16 09:45:33;;;;;;;22.00;10.52;;;;;;;4.45;80.85;100285.22;5032842;28;20572;-82
2023/03/16 09:48:02;;;;;;;27.73;11.02;;;;;;;4.49;80.89;100276.19;5022983;28;20071;-82
2023/03/16 09:50:35;;;;;;;24.52;9.95;;;;;;;4.50;80.88;100277.91;4990190;28;20045;-82
2023/03/16 09:53:22;;;;;;;24.20;11.13;;;;;;;4.53;80.71;100279.53;4975399;28;20053;-82
2023/03/16 09:55:52;;;;;;;22.58;10.35;;;;;;;4.57;80.69;100273.13;5011900;28;20435;-83
2023/03/16 09:58:21;;;;;;;22.38;10.07;;;;;;;4.63;80.87;100274.56;5017359;28;20452;-82
2023/03/16 10:01:18;;;;;;;23.38;9.90;;;;;;;4.62;81.25;100272.88;4991738;28;20484;-82
2023/03/16 10:04:00;;;;;;;21.55;9.52;;;;;;;4.69;80.12;100280.34;4975549;28;20110;-82
2023/03/16 10:06:27;;;;;;;25.53;10.50;;;;;;;4.69;80.26;100267.19;5006862;28;20069;-82
2023/03/16 10:09:01;;;;;;;23.02;10.20;;;;;;;4.77;80.86;100264.13;5020495;28;20050;-82
2023/03/16 10:11:31;;;;;;;24.55;10.88;;;;;;;4.83;80.55;100257.66;5024533;28;20041;-82
2023/03/16 10:14:42;;;;;;;27.20;11.05;;;;;;;4.84;80.42;100247.03;5033943;28;20128;-82
2023/03/16 10:17:17;;;;;;;23.20;10.93;;;;;;;4.89;80.63;100241.53;4933284;28;20490;-82
2023/03/16 10:19:53;;;;;;;22.08;10.55;;;;;;;4.94;80.40;100236.84;4960246;28;20049;-82
2023/03/16 10:22:25;;;;;;;26.08;11.35;;;;;;;4.99;80.29;100230.38;4989874;28;20074;-82
2023/03/16 10:24:57;;;;;;;25.73;10.38;;;;;;;5.03;80.41;100231.00;4990958;28;20053;-82
2023/03/16 10:27:29;;;;;;;23.92;11.70;;;;;;;5.07;80.82;100229.91;5039794;28;20099;-83
2023/03/16 10:29:56;;;;;;;35.38;11.23;;;;;;;5.11;81.05;100238.47;5025872;28;20051;-83
2023/03/16 10:32:27;;;;;;;25.15;10.80;;;;;;;5.16;80.79;100237.25;5005298;28;20370;-82
2023/03/16 10:35:04;;;;;;;25.77;11.60;;;;;;;5.16;80.59;100233.75;5013512;28;20058;-82
2023/03/16 10:37:31;;;;;;;28.60;11.68;;;;;;;5.20;80.62;100240.56;4974812;28;20048;-82
2023/03/16 10:39:59;;;;;;;25.60;11.23;;;;;;;5.21;80.15;100229.91;4996165;28;20046;-83
2023/03/16 10:42:26;;;;;;;28.08;10.45;;;;;;;5.26;80.02;100232.28;5018109;28;20041;-83
2023/03/16 10:44:58;;;;;;;27.85;11.48;;;;;;;5.26;80.21;100234.91;5007951;28;20073;-83
2023/03/16 10:47:30;;;;;;;24.15;9.45;;;;;;;5.27;80.10;100231.34;4985387;28;20391;-82
2023/03/16 10:49:57;;;;;;;23.15;10.57;;;;;;;5.32;80.32;100224.03;5019355;28;20041;-83
2023/03/16 10:52:33;;;;;;;23.75;9.93;;;;;;;5.34;79.63;100229.19;5023649;28;20047;-82
2023/03/16 10:55:09;;;;;;;31.08;12.57;;;;;;;5.37;80.04;100231.66;4999048;28;20054;-82
2023/03/16 10:57:40;;;;;;;28.48;12.07;;;;;;;5.41;79.63;100235.78;4993259;28;20094;-82
2023/03/16 11:00:15;;;;;;;23.45;9.25;;;;;;;5.46;79.87;100232.88;5023520;28;20042;-82
2023/03/16 11:02:42;;;;;;;22.75;10.48;;;;;;;5.49;79.86;100219.50;5016906;28;20042;-82
2023/03/16 11:05:14;;;;;;;20.20;10.00;;;;;;;5.51;79.56;100209.72;5006370;28;20080;-82
2023/03/16 11:07:57;;;;;;;22.48;9.52;;;;;;;5.52;79.65;100214.03;5025868;28;20067;-82
2023/03/16 11:10:33;;;;;;;23.60;9.48;;;;;;;5.55;79.84;100209.44;5006019;28;21285;-82
2023/03/16 11:13:16;;;;;;;23.70;10.18;;;;;;;5.58;80.05;100209.25;4974058;28;20499;-82
2023/03/16 11:15:48;;;;;;;23.73;10.93;;;;;;;5.58;79.63;100203.16;5024298;28;20050;-82
2023/03/16 11:18:37;;;;;;;23.83;10.68;;;;;;;5.58;79.59;100204.00;5011029;28;20096;-82
2023/03/16 11:21:37;;;;;;;24.63;10.68;;;;;;;5.58;79.39;100201.34;4981264;28;20416;-82
2023/03/16 11:24:13;;;;;;;25.25;10.45;;;;;;;5.63;79.22;100196.66;4970438;28;20535;-82
2023/03/16 11:26:41;;;;;;;22.27;9.90;;;;;;;5.68;79.31;100196.38;5008730;28;20062;-82
2023/03/16 11:29:19;;;;;;;21.90;10.05;;;;;;;5.70;79.53;100183.94;5025821;28;20048;-82
2023/03/16 11:32:03;;;;;;;26.95;9.68;;;;;;;5.73;78.75;100177.63;5013205;28;20044;-82